createdAt,value
2023-01-23T00:04:55.229Z,8.6
2023-01-23T00:10:18.031Z,8.8
2023-01-23T00:15:41.691Z,8.8
2023-01-23T00:21:04.361Z,8.8
2023-01-23T00:26:30.201Z,8.7
2023-01-23T00:31:54.192Z,8.7
2023-01-23T00:37:17.071Z,8.6
2023-01-23T00:42:24.125Z,8.6
2023-01-23T00:47:53.416Z,8.6
2023-01-23T00:53:00.435Z,8.6
2023-01-23T00:58:23.277Z,8.7
2023-01-23T01:03:47.717Z,8.8
2023-01-23T01:13:47.842Z,8.6
2023-01-23T01:19:10.474Z,8.5
2023-01-23T01:24:33.064Z,8.6
2023-01-23T01:29:56.405Z,8.6
2023-01-23T01:35:20.423Z,8.5
2023-01-23T01:40:42.972Z,8.6
2023-01-23T01:46:06.151Z,8.7
2023-01-23T01:51:29.930Z,8.7
2023-01-23T01:56:36.534Z,8.6
2023-01-23T02:01:28.346Z,8.7
2023-01-23T02:06:51.825Z,8.7
2023-01-23T02:11:59.157Z,8.7
2023-01-23T02:17:22.279Z,8.8
2023-01-23T02:22:32.634Z,8.7
2023-01-23T02:27:55.357Z,8.7
2023-01-23T02:33:19.155Z,8.7
2023-01-23T02:38:42.720Z,8.6
2023-01-23T02:44:06.014Z,8.6
2023-01-23T02:49:13.926Z,8.5
2023-01-23T02:54:37.594Z,8.4
2023-01-23T03:00:00.350Z,8.4
2023-01-23T03:05:23.494Z,8.3
2023-01-23T03:10:47.031Z,8.3
2023-01-23T03:15:53.569Z,8.3
2023-01-23T03:26:23.012Z,8.2
2023-01-23T03:31:46.604Z,8.2
2023-01-23T03:37:09.333Z,8.2
2023-01-23T03:42:17.250Z,8.2
2023-01-23T03:47:24.718Z,8.2
2023-01-23T03:52:32.462Z,8.1
2023-01-23T03:57:23.793Z,8.1
2023-01-23T04:02:16.704Z,8.1
2023-01-23T04:07:24.375Z,8.1
2023-01-23T04:12:54.222Z,8
2023-01-23T04:17:46.143Z,7.9
2023-01-23T04:23:08.386Z,8
2023-01-23T04:28:31.398Z,8.1
2023-01-23T04:33:55.582Z,8.1
2023-01-23T04:39:18.735Z,8.1
2023-01-23T04:44:43.211Z,8.1
2023-01-23T04:50:06.612Z,8.2
2023-01-23T04:55:13.499Z,8.2
2023-01-23T05:00:21.521Z,8.1
2023-01-23T05:05:45.604Z,8.1
2023-01-23T05:11:11.216Z,8.1
2023-01-23T05:16:18.816Z,8.1
2023-01-23T05:21:27.427Z,8.1
2023-01-23T05:26:34.715Z,8.1
2023-01-23T05:31:57.666Z,8.1
2023-01-23T05:37:08.562Z,8.1
2023-01-23T05:42:32.734Z,8.1
2023-01-23T05:47:40.282Z,8.1
2023-01-23T05:52:48.862Z,8.1
2023-01-23T05:58:13.014Z,8
2023-01-23T06:03:21.920Z,8
2023-01-23T06:08:14.524Z,8
2023-01-23T06:13:22.009Z,8.1
2023-01-23T06:18:47.799Z,8.1
2023-01-23T06:23:56.520Z,8
2023-01-23T06:29:19.454Z,8
2023-01-23T06:34:46.222Z,7.9
2023-01-23T06:39:54.951Z,7.9
2023-01-23T06:45:20.334Z,7.9
2023-01-23T06:50:43.763Z,7.9
2023-01-23T06:56:07.868Z,7.8
2023-01-23T07:01:31.046Z,7.8
2023-01-23T07:06:54.148Z,7.8
2023-01-23T07:12:17.585Z,7.6
2023-01-23T07:17:43.162Z,7.6
2023-01-23T07:23:05.543Z,7.5
2023-01-23T07:28:13.766Z,7.5
2023-01-23T07:33:39.248Z,7.5
2023-01-23T07:39:01.769Z,7.4
2023-01-23T07:44:25.185Z,7.3
2023-01-23T07:49:48.670Z,7.4
2023-01-23T07:55:14.836Z,7.3
2023-01-23T08:00:43.703Z,7.3
2023-01-23T08:05:51.146Z,7.2
2023-01-23T08:11:23.452Z,7.2
2023-01-23T08:16:47.151Z,7.2
2023-01-23T08:21:54.662Z,7.3
2023-01-23T08:27:01.338Z,7.3
2023-01-23T08:32:25.953Z,7.2
2023-01-23T08:37:33.737Z,7.3
2023-01-23T08:42:57.575Z,7.3
2023-01-23T08:48:21.340Z,7.3
2023-01-23T08:53:45.391Z,7.3
2023-01-23T08:59:10.175Z,7.3
2023-01-23T09:04:34.532Z,7.4
2023-01-23T09:09:42.900Z,7.4
2023-01-23T09:14:50.244Z,7.5
2023-01-23T09:20:14.701Z,7.6
2023-01-23T09:25:38.292Z,7.6
2023-01-23T09:31:01.882Z,7.7
2023-01-23T09:36:41.477Z,7.6
2023-01-23T09:41:49.463Z,7.8
2023-01-23T09:47:15.014Z,7.6
2023-01-23T09:52:39.241Z,7.7
2023-01-23T09:57:46.989Z,7.6
2023-01-23T10:03:10.299Z,7.5
2023-01-23T10:08:34.807Z,7.4
2023-01-23T10:14:00.783Z,7.4
2023-01-23T10:19:45.682Z,7.3
2023-01-23T10:25:18.891Z,7.3
2023-01-23T10:30:42.100Z,7.3
2023-01-23T10:36:07.620Z,7.3
2023-01-23T10:41:46.237Z,7.3
2023-01-23T10:47:10.653Z,7.4
2023-01-23T10:52:50.393Z,7.3
2023-01-23T10:58:34.565Z,7.4
2023-01-23T11:03:49.964Z,7.3
2023-01-23T11:09:20.264Z,7.2
2023-01-23T11:14:45.872Z,7.3
2023-01-23T11:20:09.765Z,7.3
2023-01-23T11:25:46.395Z,7.3
2023-01-23T11:31:11.847Z,7.3
2023-01-23T11:36:37.143Z,7.1
2023-01-23T11:42:07.198Z,7.1
2023-01-23T11:47:40.596Z,7.1
2023-01-23T11:52:57.481Z,7.2
2023-01-23T11:58:16.787Z,7.1
2023-01-23T12:04:07.475Z,7.3
2023-01-23T12:09:46.210Z,7.2
2023-01-23T12:15:09.073Z,7.2
2023-01-23T12:20:18.024Z,7.1
2023-01-23T12:25:42.902Z,7.1
2023-01-23T12:31:05.552Z,7.1
2023-01-23T12:36:30.345Z,7.1
2023-01-23T12:42:22.398Z,7.1
2023-01-23T12:47:44.792Z,7.1
2023-01-23T12:53:10.224Z,7.1
2023-01-23T12:58:58.822Z,7.1
2023-01-23T13:04:36.064Z,7.1
2023-01-23T13:10:20.119Z,7.1
2023-01-23T13:16:14.343Z,7.1
2023-01-23T13:21:37.874Z,6.9
2023-01-23T13:27:07.663Z,6.9
2023-01-23T13:32:45.250Z,6.8
2023-01-23T13:38:16.617Z,6.8
2023-01-23T13:43:51.208Z,6.6
2023-01-23T13:49:08.062Z,6.6
2023-01-23T13:54:31.492Z,6.7
2023-01-23T13:59:55.412Z,6.7
2023-01-23T14:05:17.849Z,6.8
2023-01-23T14:10:41.058Z,6.9
2023-01-23T14:16:05.405Z,6.8
2023-01-23T14:21:41.279Z,6.8
2023-01-23T14:27:08.164Z,6.8
2023-01-23T14:32:46.774Z,6.7
2023-01-23T14:38:03.513Z,6.6
2023-01-23T14:44:08.933Z,6.6
2023-01-23T14:49:49.715Z,6.7
2023-01-23T14:55:30.213Z,6.6
2023-01-23T15:00:56.408Z,6.6
2023-01-23T15:06:31.646Z,6.6
2023-01-23T15:11:55.094Z,6.4
2023-01-23T15:17:18.438Z,6.4
2023-01-23T15:22:42.853Z,6.4
2023-01-23T15:28:18.588Z,6.3
2023-01-23T15:33:43.014Z,6.3
2023-01-23T15:39:07.960Z,6.3
2023-01-23T15:44:45.252Z,6.3
2023-01-23T15:50:16.620Z,6.3
2023-01-23T15:55:41.048Z,6.3
2023-01-23T16:01:17.304Z,6.3
2023-01-23T16:06:57.240Z,6.3
2023-01-23T16:12:29.371Z,6.3
2023-01-23T16:17:49.753Z,6.3
2023-01-23T16:23:39.071Z,6.4
2023-01-23T16:29:28.613Z,6.4
2023-01-23T16:34:52.830Z,6.3
2023-01-23T16:40:16.013Z,6.3
2023-01-23T16:45:40.603Z,6.3
2023-01-23T16:51:21.414Z,6.4
2023-01-23T16:56:55.726Z,6.4
2023-01-23T17:02:36.248Z,6.3
2023-01-23T17:08:00.011Z,6.3
2023-01-23T17:13:22.196Z,6.3
2023-01-23T17:23:21.549Z,6.3
2023-01-23T17:29:07.558Z,6.2
2023-01-23T17:34:33.712Z,6.1
2023-01-23T17:40:02.011Z,6.1
2023-01-23T17:45:26.502Z,6.1
2023-01-23T17:50:50.840Z,6.1
2023-01-23T17:56:00.970Z,6.1
2023-01-23T18:01:26.246Z,6
2023-01-23T18:06:51.955Z,5.9
2023-01-23T18:12:11.708Z,5.9
2023-01-23T18:17:42.191Z,5.9
2023-01-23T18:22:57.313Z,5.9
2023-01-23T18:27:53.069Z,5.9
2023-01-23T18:32:51.777Z,5.9
2023-01-23T18:38:10.404Z,5.9
2023-01-23T18:43:28.404Z,5.9
2023-01-23T18:49:31.359Z,5.9
2023-01-23T18:55:10.284Z,5.9
2023-01-23T19:01:00.515Z,5.8
2023-01-23T19:06:41.590Z,5.8
2023-01-23T19:12:30.544Z,5.8
2023-01-23T19:17:46.474Z,5.9
2023-01-23T19:23:44.521Z,5.9
2023-01-23T19:29:37.312Z,5.8
2023-01-23T19:40:50.712Z,5.8
2023-01-23T19:46:52.960Z,5.8
2023-01-23T19:52:30.971Z,5.8
2023-01-23T19:57:38.318Z,5.8
2023-01-23T20:02:59.897Z,5.7
2023-01-23T20:07:58.373Z,5.7
2023-01-23T20:13:27.372Z,5.7
2023-01-23T20:18:56.980Z,5.6
2023-01-23T20:24:28.540Z,5.6
2023-01-23T20:29:57.181Z,5.6
2023-01-23T20:35:12.497Z,5.6
2023-01-23T20:40:38.286Z,5.6
2023-01-23T20:46:03.733Z,5.6
2023-01-23T20:51:29.442Z,5.6
2023-01-23T20:56:55.810Z,5.6
2023-01-23T21:02:22.796Z,5.6
2023-01-23T21:12:10.943Z,5.4
2023-01-23T21:17:19.588Z,5.4
2023-01-23T21:22:44.909Z,5.4
2023-01-23T21:28:08.235Z,5.4
2023-01-23T21:33:31.268Z,5.4
2023-01-23T21:38:55.166Z,5.3
2023-01-23T21:44:02.919Z,5.3
2023-01-23T21:49:24.892Z,5.3
2023-01-23T21:54:18.161Z,5.2
2023-01-23T21:59:41.193Z,5.3
2023-01-23T22:05:04.152Z,5.2
2023-01-23T22:10:28.948Z,5.2
2023-01-23T22:15:54.382Z,5.1
2023-01-23T22:21:36.252Z,5.1
2023-01-23T22:27:00.755Z,5.1
2023-01-23T22:32:25.217Z,5.1
2023-01-23T22:37:57.152Z,5.1
2023-01-23T22:43:21.491Z,5.1
2023-01-23T22:48:45.307Z,5
2023-01-23T22:54:10.553Z,5
2023-01-23T22:59:19.021Z,5
2023-01-23T23:04:42.971Z,5
2023-01-23T23:19:50.529Z,4.9
2023-01-23T23:24:57.617Z,4.9
2023-01-23T23:35:14.097Z,4.9
2023-01-23T23:40:36.751Z,4.9
2023-01-23T23:46:00.520Z,4.9
2023-01-23T23:51:23.744Z,4.8
2023-01-23T23:56:31.132Z,4.8
